Time;durP1;ratioP1;P1;durP2;ratioP2;P2;SDS_P1;SDS_P2;PMS_P1;PMS_P2;Temp;Humidity;BMP_temperature;BMP_pressure;BME280_temperature;BME280_humidity;BME280_pressure;Samples;Min_cycle;Max_cycle;Signal;HPM_P1;HPM_P2
2024/02/10 00:01:10;;;;;;;10.57;2.40;;;;;;;;;;5036698;28;20649;-80
2024/02/10 00:03:35;;;;;;;3.90;2.38;;;;;;;;;;5033063;28;20044;-79
2024/02/10 00:06:01;;;;;;;2.53;1.60;;;;;;;;;;5031788;28;20068;-81
2024/02/10 00:08:27;;;;;;;2.53;2.13;;;;;;;;;;5016574;28;20037;-80
2024/02/10 00:10:56;;;;;;;3.45;1.98;;;;;;;;;;5027081;28;20064;-80
2024/02/10 00:13:21;;;;;;;3.15;2.30;;;;;;;;;;5018312;28;20571;-78
2024/02/10 00:15:47;;;;;;;3.97;2.22;;;;;;;;;;5021871;28;20037;-79
2024/02/10 00:18:13;;;;;;;3.58;1.67;;;;;;;;;;5029127;28;20097;-80
2024/02/10 00:20:39;;;;;;;2.88;1.77;;;;;;;;;;5025884;28;20044;-80
2024/02/10 00:23:05;;;;;;;1.77;1.67;;;;;;;;;;5016580;28;20038;-80
2024/02/10 00:25:31;;;;;;;2.05;1.60;;;;;;;;;;5013083;28;20037;-79
2024/02/10 00:28:00;;;;;;;2.30;1.80;;;;;;;;;;5038569;28;20041;-80
2024/02/10 00:30:27;;;;;;;2.97;1.90;;;;;;;;;;5026090;28;20464;-79
2024/02/10 00:32:53;;;;;;;2.88;1.88;;;;;;;;;;5040139;28;20074;-79
2024/02/10 00:35:22;;;;;;;3.65;1.70;;;;;;;;;;5033537;28;20453;-80
2024/02/10 00:37:56;;;;;;;2.80;1.80;;;;;;;;;;5019639;28;20041;-81
2024/02/10 00:40:22;;;;;;;1.65;1.30;;;;;;;;;;5027292;28;20703;-80
2024/02/10 00:42:47;;;;;;;1.98;1.45;;;;;;;;;;5022077;28;20034;-78
2024/02/10 00:45:13;;;;;;;1.85;1.60;;;;;;;;;;5021099;28;20104;-79
2024/02/10 00:47:44;;;;;;;1.33;1.17;;;;;;;;;;5032739;28;20037;-80
2024/02/10 00:50:11;;;;;;;1.30;1.20;;;;;;;;;;5021770;28;20714;-79
2024/02/10 00:52:37;;;;;;;1.67;1.23;;;;;;;;;;5026862;28;20073;-81
2024/02/10 00:55:03;;;;;;;2.13;1.50;;;;;;;;;;5024211;28;20033;-80
2024/02/10 00:57:28;;;;;;;2.08;1.40;;;;;;;;;;5023618;28;20045;-79
2024/02/10 00:59:56;;;;;;;2.03;1.30;;;;;;;;;;5028147;28;20041;-80
2024/02/10 01:02:22;;;;;;;1.60;1.38;;;;;;;;;;5026760;28;20879;-81
2024/02/10 01:04:48;;;;;;;1.42;0.88;;;;;;;;;;5040017;28;20048;-80
2024/02/10 01:07:17;;;;;;;2.15;1.15;;;;;;;;;;5030640;28;20057;-82
2024/02/10 01:09:46;;;;;;;1.13;1.02;;;;;;;;;;5037291;28;20041;-81
2024/02/10 01:12:12;;;;;;;2.30;1.50;;;;;;;;;;5035479;28;20033;-81
2024/02/10 01:14:40;;;;;;;1.17;0.88;;;;;;;;;;5029056;28;20045;-80
2024/02/10 01:17:10;;;;;;;1.55;1.10;;;;;;;;;;4999532;28;20072;-81
2024/02/10 01:19:51;;;;;;;1.27;1.00;;;;;;;;;;5033784;28;20116;-81
2024/02/10 01:22:22;;;;;;;1.25;0.82;;;;;;;;;;5034180;28;20040;-80
2024/02/10 01:24:53;;;;;;;0.98;0.82;;;;;;;;;;5022178;28;20061;-80
2024/02/10 01:27:19;;;;;;;0.85;0.85;;;;;;;;;;5026926;28;20029;-80
2024/02/10 01:29:45;;;;;;;1.85;0.70;;;;;;;;;;5013594;28;20034;-80
2024/02/10 01:32:10;;;;;;;1.55;0.98;;;;;;;;;;5034899;28;20040;-79
2024/02/10 01:34:38;;;;;;;1.30;0.70;;;;;;;;;;5032659;28;20037;-80
2024/02/10 01:37:03;;;;;;;2.22;0.85;;;;;;;;;;5025888;28;20125;-80
2024/02/10 01:39:29;;;;;;;0.60;0.55;;;;;;;;;;5007824;28;20038;-80
2024/02/10 01:41:54;;;;;;;1.95;0.77;;;;;;;;;;5029247;28;20506;-80
2024/02/10 01:44:19;;;;;;;1.90;0.80;;;;;;;;;;5027697;28;20506;-80
2024/02/10 01:46:45;;;;;;;1.25;0.77;;;;;;;;;;5020139;28;20065;-81
2024/02/10 01:49:12;;;;;;;0.90;0.70;;;;;;;;;;5024832;28;20076;-80
2024/02/10 01:51:38;;;;;;;0.80;0.80;;;;;;;;;;5033294;28;20036;-81
2024/02/10 01:54:04;;;;;;;0.57;0.57;;;;;;;;;;5028072;28;20041;-79
2024/02/10 01:56:39;;;;;;;1.48;0.80;;;;;;;;;;5031465;28;20037;-81
2024/02/10 01:59:07;;;;;;;1.58;0.70;;;;;;;;;;5016921;28;20049;-79
2024/02/10 02:01:38;;;;;;;0.68;0.65;;;;;;;;;;5022744;28;20487;-79
2024/02/10 02:04:05;;;;;;;0.93;0.70;;;;;;;;;;5034761;28;20041;-80
2024/02/10 02:06:31;;;;;;;0.75;0.50;;;;;;;;;;5021220;28;20037;-81
2024/02/10 02:09:00;;;;;;;0.57;0.57;;;;;;;;;;5035958;28;20037;-79
2024/02/10 02:11:28;;;;;;;0.68;0.68;;;;;;;;;;5034467;28;20096;-79
2024/02/10 02:13:58;;;;;;;0.40;0.40;;;;;;;;;;5038173;28;20037;-80
2024/02/10 02:16:28;;;;;;;0.60;0.60;;;;;;;;;;5034790;28;20033;-80
2024/02/10 02:18:57;;;;;;;0.80;0.60;;;;;;;;;;5038644;28;20033;-81
2024/02/10 02:21:24;;;;;;;0.52;0.30;;;;;;;;;;5027401;28;20561;-79
2024/02/10 02:23:51;;;;;;;0.50;0.50;;;;;;;;;;5020200;28;20072;-80
2024/02/10 02:26:16;;;;;;;0.45;0.45;;;;;;;;;;5030553;28;20053;-79
2024/02/10 02:28:44;;;;;;;1.13;0.70;;;;;;;;;;5032859;28;20037;-80
2024/02/10 02:31:10;;;;;;;0.60;0.50;;;;;;;;;;5032559;28;20253;-80
2024/02/10 02:33:36;;;;;;;0.65;0.55;;;;;;;;;;5032921;28;20045;-80
2024/02/10 02:36:01;;;;;;;0.40;0.40;;;;;;;;;;5039452;28;20102;-79
2024/02/10 02:38:27;;;;;;;0.30;0.30;;;;;;;;;;5036471;28;20112;-79
2024/02/10 02:40:52;;;;;;;0.57;0.57;;;;;;;;;;5034037;28;20036;-80
2024/02/10 02:43:18;;;;;;;0.30;0.30;;;;;;;;;;5038203;28;20432;-79
2024/02/10 02:45:43;;;;;;;0.57;0.43;;;;;;;;;;5039563;28;20540;-79
2024/02/10 02:48:10;;;;;;;0.55;0.55;;;;;;;;;;5034221;28;20043;-81
2024/02/10 02:50:37;;;;;;;0.52;0.47;;;;;;;;;;5014923;28;20033;-79
2024/02/10 02:53:03;;;;;;;0.30;0.30;;;;;;;;;;5030181;28;20030;-81
2024/02/10 02:55:29;;;;;;;0.30;0.30;;;;;;;;;;5034254;28;20507;-80
2024/02/10 02:57:58;;;;;;;0.30;0.30;;;;;;;;;;5026840;28;20136;-80
2024/02/10 03:00:23;;;;;;;0.40;0.38;;;;;;;;;;5038366;28;20114;-80
2024/02/10 03:02:51;;;;;;;0.30;0.30;;;;;;;;;;5038347;28;20059;-80
2024/02/10 03:05:17;;;;;;;0.52;0.40;;;;;;;;;;5033083;28;20040;-80
2024/02/10 03:07:45;;;;;;;0.77;0.30;;;;;;;;;;5021567;28;20088;-81
2024/02/10 03:10:11;;;;;;;0.70;0.30;;;;;;;;;;5040172;28;20487;-80
2024/02/10 03:12:37;;;;;;;0.32;0.32;;;;;;;;;;5038316;28;20033;-81
2024/02/10 03:15:04;;;;;;;0.88;0.40;;;;;;;;;;5039231;28;20033;-80
2024/02/10 03:17:30;;;;;;;0.40;0.30;;;;;;;;;;5034525;28;20044;-82
2024/02/10 03:20:00;;;;;;;0.30;0.30;;;;;;;;;;5032288;28;20060;-81
2024/02/10 03:22:26;;;;;;;0.30;0.30;;;;;;;;;;5026072;28;20037;-82
2024/02/10 03:24:53;;;;;;;0.57;0.43;;;;;;;;;;5036928;28;20044;-82
2024/02/10 03:27:22;;;;;;;0.40;0.40;;;;;;;;;;5024847;28;20448;-81
2024/02/10 03:29:49;;;;;;;0.93;0.30;;;;;;;;;;5031178;28;20032;-82
2024/02/10 03:32:15;;;;;;;0.20;0.20;;;;;;;;;;5029629;28;20051;-81
2024/02/10 03:34:40;;;;;;;0.30;0.30;;;;;;;;;;5031514;28;20668;-80
2024/02/10 03:37:06;;;;;;;1.08;0.40;;;;;;;;;;5029305;28;20106;-81
2024/02/10 03:39:32;;;;;;;0.35;0.30;;;;;;;;;;5024209;28;21697;-79
2024/02/10 03:41:57;;;;;;;1.85;0.50;;;;;;;;;;5024604;28;20402;-81
2024/02/10 03:44:23;;;;;;;1.13;0.50;;;;;;;;;;5037049;28;20037;-79
2024/02/10 03:46:50;;;;;;;0.80;0.57;;;;;;;;;;5035775;28;20503;-80
2024/02/10 03:49:16;;;;;;;0.57;0.57;;;;;;;;;;5040030;28;20472;-80
2024/02/10 03:51:41;;;;;;;0.82;0.60;;;;;;;;;;5033426;28;20037;-79
2024/02/10 03:54:09;;;;;;;1.52;0.52;;;;;;;;;;5021139;28;20480;-81
2024/02/10 03:56:37;;;;;;;0.40;0.40;;;;;;;;;;5026543;28;20094;-80
2024/02/10 03:59:03;;;;;;;1.05;0.47;;;;;;;;;;5025230;28;20086;-81
2024/02/10 04:01:29;;;;;;;0.40;0.40;;;;;;;;;;5026160;28;20055;-81
2024/02/10 04:04:00;;;;;;;1.77;0.50;;;;;;;;;;5033277;28;20548;-80
2024/02/10 04:06:26;;;;;;;1.42;0.60;;;;;;;;;;5026404;28;20044;-81
2024/02/10 04:08:51;;;;;;;1.85;0.57;;;;;;;;;;5037256;28;20923;-80
2024/02/10 04:11:16;;;;;;;0.50;0.50;;;;;;;;;;5036044;28;20051;-81
2024/02/10 04:13:43;;;;;;;1.60;0.80;;;;;;;;;;5039150;28;20047;-79
2024/02/10 04:16:10;;;;;;;0.50;0.50;;;;;;;;;;5038175;28;20044;-80
2024/02/10 04:18:36;;;;;;;0.75;0.50;;;;;;;;;;5027393;28;20037;-81
2024/02/10 04:21:04;;;;;;;0.85;0.57;;;;;;;;;;5025699;28;20593;-80
2024/02/10 04:23:31;;;;;;;0.60;0.60;;;;;;;;;;5043059;28;20052;-80
2024/02/10 04:25:57;;;;;;;0.45;0.45;;;;;;;;;;5021638;28;21056;-79
2024/02/10 04:28:23;;;;;;;0.60;0.60;;;;;;;;;;5022246;28;20029;-81
2024/02/10 04:30:51;;;;;;;0.65;0.50;;;;;;;;;;5030059;28;20040;-79
2024/02/10 04:33:16;;;;;;;1.23;0.90;;;;;;;;;;5050851;28;20037;-80
2024/02/10 04:35:42;;;;;;;0.82;0.80;;;;;;;;;;5046732;28;20035;-82
2024/02/10 04:38:08;;;;;;;1.67;0.50;;;;;;;;;;5042868;28;20063;-80
2024/02/10 04:40:34;;;;;;;0.40;0.40;;;;;;;;;;5034524;28;20133;-83
2024/02/10 04:43:00;;;;;;;0.90;0.70;;;;;;;;;;5041056;28;20470;-83
2024/02/10 04:45:34;;;;;;;0.77;0.57;;;;;;;;;;5023248;28;20037;-80
2024/02/10 04:48:01;;;;;;;1.40;0.50;;;;;;;;;;5036419;28;20084;-81
2024/02/10 04:50:28;;;;;;;0.40;0.40;;;;;;;;;;5032510;28;20687;-80
2024/02/10 04:52:57;;;;;;;0.60;0.60;;;;;;;;;;5041979;28;20041;-81
2024/02/10 04:55:23;;;;;;;2.22;0.50;;;;;;;;;;5045842;28;20487;-81
2024/02/10 04:57:50;;;;;;;1.02;0.93;;;;;;;;;;5040158;28;20446;-81
2024/02/10 05:00:16;;;;;;;3.00;0.95;;;;;;;;;;5021406;28;20041;-80
2024/02/10 05:02:43;;;;;;;0.50;0.50;;;;;;;;;;5035836;28;20039;-81
2024/02/10 05:05:12;;;;;;;0.52;0.50;;;;;;;;;;5039200;28;20037;-81
2024/02/10 05:07:47;;;;;;;0.60;0.60;;;;;;;;;;5038067;28;20048;-80
2024/02/10 05:10:15;;;;;;;2.47;0.63;;;;;;;;;;5037707;28;20040;-82
2024/02/10 05:12:49;;;;;;;0.82;0.70;;;;;;;;;;5034784;28;20029;-81
2024/02/10 05:15:18;;;;;;;0.70;0.70;;;;;;;;;;5014000;28;20045;-80
2024/02/10 05:17:48;;;;;;;0.60;0.60;;;;;;;;;;5039639;28;20102;-81
2024/02/10 05:20:19;;;;;;;1.33;0.70;;;;;;;;;;5033194;28;20064;-81
2024/02/10 05:22:52;;;;;;;0.88;0.70;;;;;;;;;;5031569;28;20079;-80
2024/02/10 05:25:19;;;;;;;0.95;0.90;;;;;;;;;;5042503;28;20044;-80
2024/02/10 05:27:49;;;;;;;1.13;0.80;;;;;;;;;;5019295;28;20115;-82
2024/02/10 05:30:23;;;;;;;1.05;0.70;;;;;;;;;;5037402;28;20045;-81
2024/02/10 05:32:49;;;;;;;0.70;0.70;;;;;;;;;;5043623;28;20037;-81
2024/02/10 05:35:17;;;;;;;0.57;0.40;;;;;;;;;;5039882;28;20040;-81
2024/02/10 05:37:45;;;;;;;1.75;0.60;;;;;;;;;;5038911;28;20036;-82
2024/02/10 05:40:12;;;;;;;0.60;0.60;;;;;;;;;;5051670;28;20071;-81
2024/02/10 05:42:37;;;;;;;0.85;0.60;;;;;;;;;;5032641;28;20045;-80
2024/02/10 05:45:07;;;;;;;2.03;0.60;;;;;;;;;;5043748;28;20083;-81
2024/02/10 05:47:35;;;;;;;0.70;0.65;;;;;;;;;;5033427;28;20115;-82
2024/02/10 05:50:05;;;;;;;1.20;0.80;;;;;;;;;;5038740;28;20077;-82
2024/02/10 05:52:34;;;;;;;1.52;0.60;;;;;;;;;;5026597;28;20593;-80
2024/02/10 05:55:03;;;;;;;1.38;0.80;;;;;;;;;;5042117;28;20466;-80
2024/02/10 05:57:28;;;;;;;2.22;1.70;;;;;;;;;;5024290;28;20639;-80
2024/02/10 05:59:54;;;;;;;3.08;1.50;;;;;;;;;;5030973;28;20098;-80
2024/02/10 06:02:21;;;;;;;2.30;1.40;;;;;;;;;;5043002;28;20118;-79
2024/02/10 06:04:50;;;;;;;2.92;1.88;;;;;;;;;;5038275;28;20389;-79
2024/02/10 06:07:18;;;;;;;2.38;1.50;;;;;;;;;;5041708;28;20037;-80
2024/02/10 06:09:44;;;;;;;1.52;1.27;;;;;;;;;;5037233;28;20537;-79
2024/02/10 06:12:10;;;;;;;0.65;0.47;;;;;;;;;;5047154;28;20249;-79
2024/02/10 06:14:37;;;;;;;1.02;0.93;;;;;;;;;;5019939;28;20568;-79
2024/02/10 06:17:06;;;;;;;1.65;1.20;;;;;;;;;;5042208;28;20048;-81
2024/02/10 06:19:31;;;;;;;3.10;1.80;;;;;;;;;;5043532;28;20575;-79
2024/02/10 06:21:57;;;;;;;7.32;3.90;;;;;;;;;;5038153;28;20052;-79
2024/02/10 06:24:27;;;;;;;5.43;3.08;;;;;;;;;;5047897;28;20443;-82
2024/02/10 06:26:54;;;;;;;3.45;2.35;;;;;;;;;;5038664;28;20036;-79
2024/02/10 06:29:19;;;;;;;4.93;2.90;;;;;;;;;;5050211;28;20379;-80
2024/02/10 06:31:46;;;;;;;5.32;2.85;;;;;;;;;;5024394;28;20044;-79
2024/02/10 06:34:12;;;;;;;3.50;2.60;;;;;;;;;;5043481;28;20045;-79
2024/02/10 06:36:37;;;;;;;5.25;2.75;;;;;;;;;;5041410;28;20037;-81
2024/02/10 06:39:02;;;;;;;5.15;3.00;;;;;;;;;;5030924;28;20120;-81
2024/02/10 06:41:30;;;;;;;3.83;1.83;;;;;;;;;;5035532;28;20048;-80
2024/02/10 06:43:55;;;;;;;5.30;2.80;;;;;;;;;;5035425;28;20032;-79
2024/02/10 06:46:21;;;;;;;2.83;2.08;;;;;;;;;;5036359;28;20040;-78
2024/02/10 06:48:46;;;;;;;3.75;2.63;;;;;;;;;;5025164;28;20037;-78
2024/02/10 06:51:12;;;;;;;1.38;0.93;;;;;;;;;;5042399;28;20032;-79
2024/02/10 06:53:38;;;;;;;4.65;3.40;;;;;;;;;;5033977;28;20098;-78
2024/02/10 06:56:04;;;;;;;5.25;3.33;;;;;;;;;;5031093;28;20041;-79
2024/02/10 06:58:30;;;;;;;4.25;3.30;;;;;;;;;;5038668;28;20486;-79
2024/02/10 07:00:58;;;;;;;3.03;2.58;;;;;;;;;;5046074;28;20044;-79
2024/02/10 07:03:24;;;;;;;2.92;2.13;;;;;;;;;;5042988;28;20040;-79
2024/02/10 07:05:49;;;;;;;0.75;0.65;;;;;;;;;;5025960;28;20110;-81
2024/02/10 07:08:17;;;;;;;7.45;1.95;;;;;;;;;;5050461;28;20494;-82
2024/02/10 07:10:46;;;;;;;12.52;2.67;;;;;;;;;;5026376;28;20040;-84
2024/02/10 07:13:11;;;;;;;4.72;2.17;;;;;;;;;;5022440;28;20044;-81
2024/02/10 07:15:37;;;;;;;4.60;2.35;;;;;;;;;;5031439;28;20037;-84
2024/02/10 07:18:06;;;;;;;3.15;2.47;;;;;;;;;;5029726;28;20029;-81
2024/02/10 07:20:33;;;;;;;3.40;2.08;;;;;;;;;;5019334;28;20056;-82
2024/02/10 07:23:00;;;;;;;2.00;1.88;;;;;;;;;;5019795;28;20072;-82
2024/02/10 07:25:26;;;;;;;3.63;2.10;;;;;;;;;;5034929;28;20128;-81
2024/02/10 07:27:52;;;;;;;3.28;2.30;;;;;;;;;;5032677;28;20037;-82
2024/02/10 07:30:19;;;;;;;3.30;2.10;;;;;;;;;;5028363;28;20044;-82
2024/02/10 07:32:45;;;;;;;1.63;1.50;;;;;;;;;;5033589;28;20037;-81
2024/02/10 07:35:12;;;;;;;4.13;1.80;;;;;;;;;;5033028;28;20136;-81
2024/02/10 07:37:38;;;;;;;3.47;2.30;;;;;;;;;;5012147;28;20036;-82
2024/02/10 07:40:06;;;;;;;1.70;1.60;;;;;;;;;;5016960;28;20041;-82
2024/02/10 07:42:32;;;;;;;5.32;2.88;;;;;;;;;;5028150;28;20109;-82
2024/02/10 07:44:59;;;;;;;4.55;3.40;;;;;;;;;;5026563;28;20699;-82
2024/02/10 07:47:25;;;;;;;3.40;2.55;;;;;;;;;;5029109;28;20064;-82
2024/02/10 07:49:52;;;;;;;2.75;2.13;;;;;;;;;;5029807;28;20033;-82
2024/02/10 07:52:21;;;;;;;5.72;4.00;;;;;;;;;;5035527;28;20082;-83
2024/02/10 07:54:50;;;;;;;1.35;1.08;;;;;;;;;;5022451;28;20037;-82
2024/02/10 07:57:22;;;;;;;11.40;2.40;;;;;;;;;;5034407;28;20120;-81
2024/02/10 07:59:50;;;;;;;3.33;2.50;;;;;;;;;;5034548;28;20155;-82
2024/02/10 08:02:21;;;;;;;5.82;3.20;;;;;;;;;;5033557;28;20044;-81
2024/02/10 08:04:51;;;;;;;7.82;4.95;;;;;;;;;;5036827;28;20436;-86
2024/02/10 08:07:24;;;;;;;6.65;4.72;;;;;;;;;;5019399;28;20052;-82
2024/02/10 08:09:51;;;;;;;5.65;4.50;;;;;;;;;;5025180;28;20103;-82
2024/02/10 08:12:23;;;;;;;5.72;3.97;;;;;;;;;;5025671;28;20051;-82
2024/02/10 08:14:55;;;;;;;4.68;3.72;;;;;;;;;;5038898;28;20045;-83
2024/02/10 08:17:26;;;;;;;4.28;2.80;;;;;;;;;;5031821;28;20160;-81
2024/02/10 08:19:51;;;;;;;4.70;2.42;;;;;;;;;;5031842;28;20121;-83
2024/02/10 08:22:18;;;;;;;2.78;2.30;;;;;;;;;;5016421;28;20538;-82
2024/02/10 08:24:43;;;;;;;3.45;2.45;;;;;;;;;;5045577;28;20440;-82
2024/02/10 08:27:09;;;;;;;3.40;2.58;;;;;;;;;;5035588;28;20025;-83
2024/02/10 08:29:35;;;;;;;2.67;2.22;;;;;;;;;;5037359;28;20048;-80
2024/02/10 08:32:02;;;;;;;4.05;1.60;;;;;;;;;;5032968;28;20048;-82
2024/02/10 08:34:30;;;;;;;3.10;2.30;;;;;;;;;;5035747;28;20037;-83
2024/02/10 08:36:57;;;;;;;3.22;2.40;;;;;;;;;;5012986;28;20044;-81
2024/02/10 08:39:22;;;;;;;3.58;2.50;;;;;;;;;;5028513;28;20044;-82
2024/02/10 08:41:48;;;;;;;4.65;3.10;;;;;;;;;;5035054;28;20140;-83
2024/02/10 08:44:14;;;;;;;3.85;2.38;;;;;;;;;;5040326;28;20033;-81
2024/02/10 08:46:42;;;;;;;3.92;3.00;;;;;;;;;;5025282;28;20521;-84
2024/02/10 08:49:13;;;;;;;6.50;2.75;;;;;;;;;;5027857;28;20056;-81
2024/02/10 08:51:38;;;;;;;4.75;3.30;;;;;;;;;;5029711;28;20036;-82
2024/02/10 08:54:10;;;;;;;6.03;3.40;;;;;;;;;;5023697;28;20164;-83
2024/02/10 08:56:40;;;;;;;4.30;3.20;;;;;;;;;;5029293;28;20036;-84
2024/02/10 08:59:06;;;;;;;5.10;2.83;;;;;;;;;;5036802;28;20121;-81
2024/02/10 09:01:31;;;;;;;4.75;2.70;;;;;;;;;;5032702;28;20060;-82
2024/02/10 09:03:58;;;;;;;4.07;2.55;;;;;;;;;;5027857;28;20056;-84
2024/02/10 09:06:23;;;;;;;3.35;2.60;;;;;;;;;;5019743;28;20045;-82
2024/02/10 09:08:52;;;;;;;4.68;3.15;;;;;;;;;;5019508;28;20492;-82
2024/02/10 09:11:18;;;;;;;6.22;3.50;;;;;;;;;;5016718;28;20041;-82
2024/02/10 09:13:45;;;;;;;4.65;3.17;;;;;;;;;;5034214;28;20639;-80
2024/02/10 09:16:11;;;;;;;4.43;2.88;;;;;;;;;;5034135;28;20155;-82
2024/02/10 09:18:37;;;;;;;6.97;3.85;;;;;;;;;;5046545;28;20040;-82
2024/02/10 09:21:02;;;;;;;3.60;3.08;;;;;;;;;;5043453;28;20187;-81
2024/02/10 09:23:29;;;;;;;5.38;2.90;;;;;;;;;;5019810;28;20087;-83
2024/02/10 09:25:55;;;;;;;5.07;2.80;;;;;;;;;;5021323;28;20056;-84
2024/02/10 09:28:22;;;;;;;5.20;2.85;;;;;;;;;;5030095;28;20040;-83
2024/02/10 09:30:47;;;;;;;3.05;2.70;;;;;;;;;;5042013;28;20075;-85
2024/02/10 09:33:24;;;;;;;3.25;2.75;;;;;;;;;;5049591;28;20041;-84
2024/02/10 09:35:51;;;;;;;3.05;2.55;;;;;;;;;;5039873;28;20076;-83
2024/02/10 09:38:20;;;;;;;7.05;3.10;;;;;;;;;;5044985;28;20032;-83
2024/02/10 09:40:46;;;;;;;2.83;2.35;;;;;;;;;;5024151;28;20029;-83
2024/02/10 09:43:17;;;;;;;4.28;2.20;;;;;;;;;;5048716;28;20040;-83
2024/02/10 09:45:45;;;;;;;;;;;;;;;;;;5038300;28;20080;-83
2024/02/10 09:48:19;;;;;;;2.58;1.75;;;;;;;;;;5038857;28;19925;-85
2024/02/10 09:50:45;;;;;;;2.05;1.85;;;;;;;;;;5041360;28;20034;-84
2024/02/10 09:53:12;;;;;;;3.47;2.13;;;;;;;;;;5050696;28;20056;-83
2024/02/10 09:55:37;;;;;;;2.10;1.80;;;;;;;;;;5029277;28;20036;-82
2024/02/10 09:58:04;;;;;;;3.50;1.80;;;;;;;;;;5037675;28;20108;-82
2024/02/10 10:00:31;;;;;;;2.15;1.85;;;;;;;;;;5040092;28;20676;-81
2024/02/10 10:03:00;;;;;;;2.55;1.42;;;;;;;;;;5040034;28;20033;-82
2024/02/10 10:05:29;;;;;;;2.75;1.23;;;;;;;;;;5048712;28;20616;-82
2024/02/10 10:07:55;;;;;;;1.80;1.50;;;;;;;;;;5040617;28;20029;-82
2024/02/10 10:10:21;;;;;;;2.45;1.50;;;;;;;;;;5034164;28;20037;-85
2024/02/10 10:12:49;;;;;;;2.38;1.40;;;;;;;;;;4999572;28;20061;-84
2024/02/10 10:15:14;;;;;;;1.92;1.50;;;;;;;;;;5057831;28;20036;-81
2024/02/10 10:17:40;;;;;;;2.40;1.77;;;;;;;;;;5024121;28;20041;-80
2024/02/10 10:20:05;;;;;;;1.85;1.52;;;;;;;;;;5042760;28;20104;-82
2024/02/10 10:22:37;;;;;;;2.63;1.25;;;;;;;;;;5019729;28;20056;-80
2024/02/10 10:25:06;;;;;;;1.95;1.00;;;;;;;;;;5033439;28;20045;-78
2024/02/10 10:27:32;;;;;;;4.00;1.50;;;;;;;;;;5024345;28;20071;-79
2024/02/10 10:29:58;;;;;;;2.47;1.27;;;;;;;;;;5030469;28;20554;-78
2024/02/10 10:32:27;;;;;;;1.42;1.33;;;;;;;;;;5032501;28;20128;-77
2024/02/10 10:34:56;;;;;;;2.92;2.05;;;;;;;;;;5030988;28;20043;-77
2024/02/10 10:37:25;;;;;;;1.67;1.55;;;;;;;;;;5047223;28;20055;-77
2024/02/10 10:39:54;;;;;;;4.18;2.30;;;;;;;;;;5028818;28;20045;-77
2024/02/10 10:42:23;;;;;;;1.30;1.17;;;;;;;;;;5008223;28;20032;-77
2024/02/10 10:44:51;;;;;;;2.80;1.60;;;;;;;;;;5027193;28;20124;-77
2024/02/10 10:47:23;;;;;;;2.20;1.42;;;;;;;;;;5040776;28;20040;-77
2024/02/10 10:49:50;;;;;;;2.47;1.52;;;;;;;;;;5040256;28;20147;-77
2024/02/10 10:52:20;;;;;;;3.15;1.50;;;;;;;;;;5031768;28;20043;-76
2024/02/10 10:54:49;;;;;;;1.48;1.38;;;;;;;;;;5034687;28;20037;-78
2024/02/10 10:57:23;;;;;;;1.30;0.90;;;;;;;;;;5021463;28;20029;-77
2024/02/10 11:00:00;;;;;;;1.58;1.05;;;;;;;;;;5030948;28;20055;-76
2024/02/10 11:02:29;;;;;;;1.42;0.82;;;;;;;;;;5025760;28;20136;-77
2024/02/10 11:05:26;;;;;;;2.65;0.75;;;;;;;;;;5023057;28;20145;-75
2024/02/10 11:08:01;;;;;;;0.70;0.70;;;;;;;;;;4998248;28;20099;-77
2024/02/10 11:10:44;;;;;;;0.77;0.77;;;;;;;;;;5024949;28;20043;-76
2024/02/10 11:13:22;;;;;;;1.15;0.82;;;;;;;;;;5026722;28;20116;-78
2024/02/10 11:16:12;;;;;;;1.80;0.80;;;;;;;;;;5029886;28;20037;-78
2024/02/10 11:18:45;;;;;;;1.73;0.95;;;;;;;;;;5014478;28;20550;-77
2024/02/10 11:21:21;;;;;;;0.95;0.80;;;;;;;;;;5033467;28;20045;-77
2024/02/10 11:24:11;;;;;;;0.57;0.50;;;;;;;;;;5033763;28;20045;-78
2024/02/10 11:26:39;;;;;;;0.63;0.60;;;;;;;;;;5024552;28;20037;-79
2024/02/10 11:29:09;;;;;;;0.73;0.73;;;;;;;;;;5030294;28;20029;-78
2024/02/10 11:31:39;;;;;;;0.70;0.70;;;;;;;;;;5006719;28;20125;-79
2024/02/10 11:34:05;;;;;;;1.60;1.40;;;;;;;;;;5016796;28;20574;-78
2024/02/10 11:36:37;;;;;;;2.58;2.20;;;;;;;;;;5030442;28;20123;-79
2024/02/10 11:39:08;;;;;;;2.53;2.33;;;;;;;;;;5020917;28;20091;-78
2024/02/10 11:41:34;;;;;;;2.47;1.90;;;;;;;;;;5012287;28;20044;-78
2024/02/10 11:44:00;;;;;;;2.00;1.80;;;;;;;;;;5028702;28;20681;-78
2024/02/10 11:46:28;;;;;;;2.35;1.90;;;;;;;;;;5013199;28;20095;-78
2024/02/10 11:48:59;;;;;;;2.67;2.13;;;;;;;;;;5024786;28;20107;-78
2024/02/10 11:51:27;;;;;;;1.52;1.42;;;;;;;;;;5024645;28;20036;-78
2024/02/10 11:53:52;;;;;;;1.45;1.15;;;;;;;;;;5026989;28;20029;-78
2024/02/10 11:56:18;;;;;;;1.38;1.27;;;;;;;;;;5030429;28;20039;-78
2024/02/10 11:58:45;;;;;;;1.48;1.15;;;;;;;;;;5022341;28;20045;-78
2024/02/10 12:01:12;;;;;;;1.77;1.10;;;;;;;;;;5020300;28;20049;-78
2024/02/10 12:03:41;;;;;;;1.70;1.10;;;;;;;;;;5031316;28;20374;-79
2024/02/10 12:06:07;;;;;;;1.20;1.10;;;;;;;;;;5030905;28;20159;-78
2024/02/10 12:08:32;;;;;;;1.40;1.10;;;;;;;;;;5029213;28;20120;-79
2024/02/10 12:10:58;;;;;;;1.85;1.17;;;;;;;;;;5023834;28;20425;-79
2024/02/10 12:13:26;;;;;;;1.30;1.15;;;;;;;;;;5026635;28;20051;-79
2024/02/10 12:15:59;;;;;;;1.50;1.40;;;;;;;;;;5032016;28;20131;-79
2024/02/10 12:18:25;;;;;;;1.65;1.55;;;;;;;;;;5004383;28;20589;-79
2024/02/10 12:20:51;;;;;;;1.33;1.20;;;;;;;;;;5017900;28;20549;-80
2024/02/10 12:23:16;;;;;;;1.30;1.13;;;;;;;;;;5022920;28;20078;-79
2024/02/10 12:25:42;;;;;;;1.23;1.13;;;;;;;;;;5014501;28;20131;-79
2024/02/10 12:28:07;;;;;;;1.20;1.00;;;;;;;;;;5030786;28;20029;-80
2024/02/10 12:30:33;;;;;;;2.45;1.20;;;;;;;;;;5022732;28;20033;-79
2024/02/10 12:32:58;;;;;;;1.73;1.10;;;;;;;;;;5016481;28;20079;-79
2024/02/10 12:35:24;;;;;;;1.25;1.00;;;;;;;;;;5016157;28;20037;-79
2024/02/10 12:37:49;;;;;;;1.40;1.30;;;;;;;;;;5036989;28;20556;-79
2024/02/10 12:40:18;;;;;;;1.27;1.05;;;;;;;;;;5036055;28;20056;-79
2024/02/10 12:42:44;;;;;;;0.85;0.85;;;;;;;;;;5030480;28;20041;-79
2024/02/10 12:45:19;;;;;;;1.92;1.13;;;;;;;;;;5026689;28;20059;-79
2024/02/10 12:47:45;;;;;;;1.52;0.93;;;;;;;;;;5024163;28;20029;-79
2024/02/10 12:50:12;;;;;;;0.88;0.88;;;;;;;;;;5022896;28;20042;-79
2024/02/10 12:52:40;;;;;;;1.48;0.93;;;;;;;;;;5034002;28;20769;-80
2024/02/10 12:55:09;;;;;;;1.10;0.85;;;;;;;;;;5022464;28;20038;-79
2024/02/10 12:57:38;;;;;;;0.80;0.80;;;;;;;;;;5029224;28;20041;-79
2024/02/10 13:00:07;;;;;;;1.13;0.88;;;;;;;;;;5036144;28;20055;-79
2024/02/10 13:02:35;;;;;;;1.33;0.88;;;;;;;;;;5033742;28;20099;-79
2024/02/10 13:05:03;;;;;;;1.15;0.85;;;;;;;;;;5016866;28;20029;-80
2024/02/10 13:07:29;;;;;;;1.67;1.08;;;;;;;;;;5025652;28;20041;-79
2024/02/10 13:09:55;;;;;;;1.00;0.90;;;;;;;;;;5026203;28;20091;-78
2024/02/10 13:12:20;;;;;;;1.50;1.20;;;;;;;;;;5027097;28;20053;-79
2024/02/10 13:14:45;;;;;;;1.20;1.10;;;;;;;;;;5023868;28;20542;-79
2024/02/10 13:17:11;;;;;;;1.58;1.15;;;;;;;;;;5022772;28;20568;-78
2024/02/10 13:19:37;;;;;;;1.13;1.00;;;;;;;;;;5031080;28;20136;-78
2024/02/10 13:22:03;;;;;;;1.80;1.00;;;;;;;;;;5013121;28;20069;-78
2024/02/10 13:24:31;;;;;;;0.80;0.80;;;;;;;;;;5031969;28;20041;-79
2024/02/10 13:26:57;;;;;;;1.42;1.33;;;;;;;;;;5011908;28;20033;-79
2024/02/10 13:29:23;;;;;;;1.73;1.00;;;;;;;;;;5018407;28;20049;-78
2024/02/10 13:31:48;;;;;;;1.92;1.60;;;;;;;;;;5010557;28;20105;-79
2024/02/10 13:34:13;;;;;;;4.43;2.17;;;;;;;;;;5023686;28;20534;-78
2024/02/10 14:00:41;;;;;;;1.38;1.20;;;;;;;;;;5031265;28;20060;-78
2024/02/10 14:03:08;;;;;;;2.45;0.90;;;;;;;;;;5038401;28;20048;-78
2024/02/10 14:05:55;;;;;;;4.00;1.48;;;;;;;;;;5045804;28;20506;-78
2024/02/10 14:14:00;;;;;;;3.42;2.08;;;;;;;;;;5012482;28;20282;-78
2024/02/10 14:16:29;;;;;;;2.58;1.55;;;;;;;;;;5038677;28;20039;-79
2024/02/10 14:19:05;;;;;;;3.60;1.70;;;;;;;;;;5042771;28;20075;-78
2024/02/10 14:21:43;;;;;;;2.33;1.80;;;;;;;;;;5027207;28;20135;-79
2024/02/10 14:24:11;;;;;;;3.35;1.77;;;;;;;;;;5034840;28;20699;-79
2024/02/10 14:26:43;;;;;;;1.73;1.33;;;;;;;;;;5019837;28;20045;-77
2024/02/10 14:29:19;;;;;;;2.72;1.60;;;;;;;;;;5047371;28;20040;-77
2024/02/10 14:31:47;;;;;;;2.28;1.27;;;;;;;;;;5030855;28;20037;-80
2024/02/10 14:34:15;;;;;;;1.80;1.40;;;;;;;;;;5022307;28;20040;-79
2024/02/10 14:36:51;;;;;;;1.70;1.33;;;;;;;;;;5018973;28;20073;-78
2024/02/10 14:39:19;;;;;;;2.67;1.80;;;;;;;;;;5019898;28;20143;-79
2024/02/10 14:41:45;;;;;;;3.20;2.00;;;;;;;;;;5022083;28;20514;-79
2024/02/10 14:44:11;;;;;;;1.40;1.30;;;;;;;;;;5022432;28;20707;-78
2024/02/10 14:46:42;;;;;;;1.83;1.23;;;;;;;;;;5023110;28;20140;-78
2024/02/10 14:49:17;;;;;;;3.58;1.60;;;;;;;;;;5032244;28;20037;-78
2024/02/10 14:51:42;;;;;;;1.92;1.50;;;;;;;;;;5031197;28;20041;-78
2024/02/10 14:54:11;;;;;;;2.90;1.98;;;;;;;;;;5024722;28;20047;-78
2024/02/10 14:56:38;;;;;;;2.70;1.92;;;;;;;;;;5028563;28;20045;-77
2024/02/10 14:59:04;;;;;;;1.90;1.67;;;;;;;;;;5015570;28;20096;-77
2024/02/10 15:01:31;;;;;;;2.25;1.40;;;;;;;;;;5027368;28;20040;-77
2024/02/10 15:03:57;;;;;;;2.20;1.70;;;;;;;;;;5033970;28;20501;-77
2024/02/10 15:06:23;;;;;;;1.60;1.50;;;;;;;;;;5032186;28;20735;-77
2024/02/10 15:08:50;;;;;;;1.50;1.33;;;;;;;;;;5031845;28;20049;-77
2024/02/10 15:11:19;;;;;;;1.27;1.08;;;;;;;;;;5029314;28;20032;-77
2024/02/10 15:13:45;;;;;;;2.00;1.30;;;;;;;;;;5036637;28;20170;-77
2024/02/10 15:16:17;;;;;;;1.60;1.50;;;;;;;;;;5035525;28;20782;-77